Time;durP1;ratioP1;P1;durP2;ratioP2;P2;SDS_P1;SDS_P2;PMS_P1;PMS_P2;Temp;Humidity;BMP_temperature;BMP_pressure;BME280_temperature;BME280_humidity;BME280_pressure;Samples;Min_cycle;Max_cycle;Signal;HPM_P1;HPM_P2
2023/12/20 00:01:34;;;;;;;18.25;5.72;;;;;;;5.36;100.00;101560.81;5031479;28;20037;-82
2023/12/20 00:04:01;;;;;;;17.80;5.72;;;;;;;5.30;100.00;101561.91;5038765;28;20388;-82
2023/12/20 00:06:26;;;;;;;20.70;5.45;;;;;;;5.24;100.00;101566.53;5044029;28;20033;-82
2023/12/20 00:08:51;;;;;;;17.08;4.88;;;;;;;5.23;100.00;101564.84;5046918;28;20037;-82
2023/12/20 00:11:17;;;;;;;21.00;5.30;;;;;;;5.21;100.00;101577.94;5043312;28;20072;-81
2023/12/20 00:13:42;;;;;;;18.65;4.75;;;;;;;5.14;100.00;101578.22;5028165;28;20113;-82
2023/12/20 00:16:08;;;;;;;22.65;5.07;;;;;;;5.12;100.00;101574.84;5036125;28;20021;-82
2023/12/20 00:18:33;;;;;;;19.27;4.97;;;;;;;5.10;100.00;101585.31;5036028;28;20028;-82
2023/12/20 00:20:58;;;;;;;18.45;4.72;;;;;;;5.09;100.00;101577.56;5035005;28;20067;-82
2023/12/20 00:23:24;;;;;;;18.40;4.97;;;;;;;5.08;100.00;101581.09;5037069;28;20025;-82
2023/12/20 00:25:49;;;;;;;20.02;4.45;;;;;;;5.04;100.00;101585.56;5041508;28;20032;-82
2023/12/20 00:28:14;;;;;;;20.08;4.85;;;;;;;4.99;100.00;101579.69;5039431;28;20040;-82
2023/12/20 00:30:40;;;;;;;19.58;4.18;;;;;;;5.00;100.00;101581.38;5031664;28;20103;-82
2023/12/20 00:33:05;;;;;;;20.90;4.47;;;;;;;4.95;100.00;101580.72;5038978;28;20037;-81
2023/12/20 00:35:33;;;;;;;21.08;5.10;;;;;;;4.89;100.00;101571.38;5047358;28;20043;-82
2023/12/20 00:37:59;;;;;;;18.17;4.18;;;;;;;4.89;100.00;101571.38;5035113;28;20044;-81
2023/12/20 00:40:24;;;;;;;19.80;4.47;;;;;;;4.81;100.00;101570.84;5038699;28;20056;-81
2023/12/20 00:42:50;;;;;;;18.75;4.25;;;;;;;4.85;100.00;101563.75;5040704;28;20030;-82
2023/12/20 00:45:18;;;;;;;20.70;4.25;;;;;;;4.81;100.00;101572.59;5036635;28;20031;-81
2023/12/20 00:47:43;;;;;;;21.75;4.22;;;;;;;4.76;100.00;101569.28;5050582;28;20017;-82
2023/12/20 00:50:09;;;;;;;20.67;4.18;;;;;;;4.69;100.00;101558.25;5035823;28;20426;-82
2023/12/20 00:52:34;;;;;;;19.98;4.47;;;;;;;4.65;100.00;101557.53;5028085;28;20690;-82
2023/12/20 00:55:00;;;;;;;23.67;4.53;;;;;;;4.65;100.00;101562.72;5030064;28;20029;-82
2023/12/20 00:57:25;;;;;;;24.85;4.18;;;;;;;4.67;100.00;101554.84;5035459;28;20021;-82
2023/12/20 00:59:50;;;;;;;26.17;4.60;;;;;;;4.68;100.00;101551.34;5045206;28;20032;-82
2023/12/20 01:02:16;;;;;;;16.70;3.88;;;;;;;4.65;100.00;101561.88;5040497;28;20060;-82
2023/12/20 01:04:41;;;;;;;22.60;4.00;;;;;;;4.66;100.00;101553.16;5047848;28;20067;-81
2023/12/20 01:07:07;;;;;;;23.20;4.15;;;;;;;4.64;100.00;101563.63;5046932;28;20033;-81
2023/12/20 01:09:33;;;;;;;23.65;4.22;;;;;;;4.62;100.00;101557.63;5048726;28;20025;-82
2023/12/20 01:11:58;;;;;;;16.90;3.72;;;;;;;4.60;100.00;101559.44;5047474;28;20058;-82
2023/12/20 01:14:24;;;;;;;24.75;4.10;;;;;;;4.61;100.00;101555.09;5040092;28;20029;-82
2023/12/20 01:16:49;;;;;;;18.25;4.00;;;;;;;4.61;100.00;101565.50;5033935;28;20424;-82
2023/12/20 01:19:18;;;;;;;24.65;4.20;;;;;;;4.62;100.00;101568.06;5030419;28;20454;-81
2023/12/20 01:21:43;;;;;;;22.40;4.43;;;;;;;4.61;100.00;101560.31;5040495;28;20445;-82
2023/12/20 01:24:09;;;;;;;17.55;4.03;;;;;;;4.61;100.00;101565.50;5037725;28;20029;-81
2023/12/20 01:26:34;;;;;;;22.38;4.30;;;;;;;4.60;100.00;101567.28;5048748;28;20032;-82
2023/12/20 01:28:59;;;;;;;16.33;4.10;;;;;;;4.62;100.00;101575.03;5044081;28;20073;-82
2023/12/20 01:31:27;;;;;;;17.65;4.10;;;;;;;4.60;100.00;101572.47;5028876;28;20091;-81
2023/12/20 01:33:52;;;;;;;21.67;4.22;;;;;;;4.59;100.00;101575.16;5037346;28;20044;-82
2023/12/20 01:36:18;;;;;;;24.35;4.80;;;;;;;4.58;100.00;101581.25;5043127;28;20261;-82
2023/12/20 01:38:43;;;;;;;22.55;4.63;;;;;;;4.57;100.00;101582.19;5034772;28;20031;-82
2023/12/20 01:41:08;;;;;;;22.38;4.35;;;;;;;4.56;100.00;101576.13;5043979;28;20401;-82
2023/12/20 01:43:34;;;;;;;17.05;4.57;;;;;;;4.56;100.00;101568.28;5039911;28;20029;-82
2023/12/20 01:46:00;;;;;;;19.25;4.03;;;;;;;4.57;100.00;101574.34;5042973;28;20040;-82
2023/12/20 01:48:32;;;;;;;20.13;4.90;;;;;;;4.55;100.00;101570.97;5028538;28;20486;-82
2023/12/20 01:51:01;;;;;;;27.80;5.18;;;;;;;4.53;100.00;101575.38;5034537;28;20484;-82
2023/12/20 01:53:28;;;;;;;21.52;4.75;;;;;;;4.52;100.00;101573.69;5034440;28;20025;-82
2023/12/20 01:55:56;;;;;;;21.75;4.88;;;;;;;4.51;100.00;101570.22;5055106;28;20049;-82
2023/12/20 01:58:22;;;;;;;17.58;4.70;;;;;;;4.52;100.00;101579.75;5045435;28;20025;-83
2023/12/20 02:00:48;;;;;;;21.90;5.07;;;;;;;4.48;100.00;101575.56;5042550;28;20091;-83
2023/12/20 02:03:14;;;;;;;19.27;4.97;;;;;;;4.48;100.00;101579.91;5040547;28;20025;-82
2023/12/20 02:05:40;;;;;;;22.75;4.85;;;;;;;4.46;100.00;101571.31;5041800;28;20025;-82
2023/12/20 02:08:06;;;;;;;21.73;5.15;;;;;;;4.43;100.00;101571.44;5028633;28;20032;-83
2023/12/20 02:10:32;;;;;;;24.02;5.45;;;;;;;4.43;100.00;101571.44;5031688;28;20091;-82
2023/12/20 02:13:00;;;;;;;23.42;5.30;;;;;;;4.48;100.00;101569.50;5039140;28;20033;-83
2023/12/20 02:15:26;;;;;;;22.63;5.18;;;;;;;4.44;100.00;101573.13;5029912;28;20026;-82
2023/12/20 02:17:51;;;;;;;24.17;5.45;;;;;;;4.45;100.00;101574.81;5028893;28;20026;-83
2023/12/20 02:20:17;;;;;;;26.45;5.18;;;;;;;4.49;100.00;101582.47;5030095;28;20432;-83
2023/12/20 02:22:42;;;;;;;24.63;5.45;;;;;;;4.49;100.00;101576.41;5047291;28;20163;-82
2023/12/20 02:25:07;;;;;;;25.98;5.88;;;;;;;4.47;100.00;101573.84;5044989;28;20024;-82
2023/12/20 02:27:34;;;;;;;24.05;5.47;;;;;;;4.46;100.00;101576.53;5032010;28;20537;-82
2023/12/20 02:29:59;;;;;;;19.23;5.45;;;;;;;4.43;100.00;101576.63;5029538;28;20026;-82
2023/12/20 02:32:26;;;;;;;24.27;5.15;;;;;;;4.42;100.00;101564.50;5040008;28;20056;-82
2023/12/20 02:34:51;;;;;;;21.25;4.90;;;;;;;4.42;100.00;101567.13;5047800;28;20029;-82
2023/12/20 02:37:17;;;;;;;21.85;5.50;;;;;;;4.43;100.00;101563.59;5035509;28;20193;-82
2023/12/20 02:39:42;;;;;;;18.63;4.95;;;;;;;4.38;100.00;101567.19;5046103;28;20028;-83
2023/12/20 02:42:07;;;;;;;21.75;5.88;;;;;;;4.38;100.00;101567.19;5043852;28;20029;-83
2023/12/20 02:44:33;;;;;;;22.48;5.35;;;;;;;4.40;100.00;101569.75;5038690;28;20032;-82
2023/12/20 02:46:58;;;;;;;19.30;5.18;;;;;;;4.40;100.00;101565.41;5043670;28;20095;-83
2023/12/20 02:49:23;;;;;;;23.75;5.82;;;;;;;4.43;100.00;101561.84;5058374;28;20025;-83
2023/12/20 02:51:49;;;;;;;27.17;5.57;;;;;;;4.45;100.00;101561.78;5035157;28;20727;-82
2023/12/20 02:54:14;;;;;;;26.38;5.90;;;;;;;4.45;100.00;101561.78;5029581;28;20029;-83
2023/12/20 02:56:39;;;;;;;23.23;5.75;;;;;;;4.50;100.00;101562.47;5037988;28;20035;-82
2023/12/20 02:59:08;;;;;;;22.90;4.95;;;;;;;4.50;100.00;101562.47;5032834;28;20125;-82
2023/12/20 03:01:34;;;;;;;26.98;6.50;;;;;;;4.49;100.00;101566.84;5030928;28;20029;-83
2023/12/20 03:04:00;;;;;;;22.88;5.20;;;;;;;4.48;100.00;101559.06;5040773;28;20465;-82
2023/12/20 03:06:25;;;;;;;25.67;5.35;;;;;;;4.46;100.00;101560.88;5049134;28;20362;-82
2023/12/20 03:08:51;;;;;;;21.25;5.55;;;;;;;4.45;100.00;101553.97;5048718;28;20070;-83
2023/12/20 03:11:16;;;;;;;22.88;5.72;;;;;;;4.45;100.00;101560.03;5047680;28;20707;-83
2023/12/20 03:13:42;;;;;;;25.40;5.95;;;;;;;4.43;100.00;101563.59;5041265;28;20103;-83
2023/12/20 03:16:11;;;;;;;18.95;5.20;;;;;;;4.39;100.00;101550.66;5032863;28;20029;-83
2023/12/20 03:18:37;;;;;;;25.15;5.20;;;;;;;4.39;100.00;101550.66;5030412;28;20056;-83
2023/12/20 03:21:03;;;;;;;25.73;6.35;;;;;;;4.38;100.00;101548.97;5036916;28;20024;-83
2023/12/20 03:23:30;;;;;;;24.98;5.90;;;;;;;4.37;100.00;101557.69;5043115;28;20025;-83
2023/12/20 03:25:55;;;;;;;24.25;5.50;;;;;;;4.38;100.00;101553.31;5046672;28;20021;-83
2023/12/20 03:28:21;;;;;;;27.48;6.38;;;;;;;4.39;100.00;101550.66;5030461;28;20033;-83
2023/12/20 03:30:46;;;;;;;25.52;5.75;;;;;;;4.39;100.00;101542.00;5031784;28;20025;-82
2023/12/20 03:33:11;;;;;;;20.67;5.90;;;;;;;4.39;100.00;101531.56;5030105;28;20041;-83
2023/12/20 03:35:37;;;;;;;27.45;6.25;;;;;;;4.45;100.00;101533.13;5040755;28;20057;-82
2023/12/20 03:38:02;;;;;;;22.58;6.25;;;;;;;4.48;100.00;101533.88;5042104;28;20037;-82
2023/12/20 03:40:27;;;;;;;22.05;6.03;;;;;;;4.53;100.00;101528.47;5044261;28;20051;-83
2023/12/20 03:42:53;;;;;;;24.85;6.70;;;;;;;4.57;100.00;101533.50;5037389;28;20025;-83
2023/12/20 03:45:18;;;;;;;23.70;6.25;;;;;;;4.58;100.00;101529.16;5031045;28;20044;-83
2023/12/20 03:47:43;;;;;;;24.20;6.53;;;;;;;4.61;100.00;101531.63;5030456;28;20183;-83
2023/12/20 03:50:09;;;;;;;28.60;6.72;;;;;;;4.63;100.00;101528.06;5043534;28;20033;-83
2023/12/20 03:52:34;;;;;;;21.15;6.63;;;;;;;4.65;100.00;101525.41;5030507;28;20455;-82
2023/12/20 03:54:59;;;;;;;30.00;6.70;;;;;;;4.67;100.00;101539.22;5042413;28;20047;-82
2023/12/20 03:57:24;;;;;;;25.15;7.55;;;;;;;4.71;100.00;101540.78;5036386;28;20032;-82
2023/12/20 03:59:50;;;;;;;27.63;7.28;;;;;;;4.73;100.00;101541.56;5029069;28;20552;-82
2023/12/20 04:02:18;;;;;;;26.38;7.28;;;;;;;4.77;100.00;101550.97;5044371;28;20048;-82
2023/12/20 04:04:44;;;;;;;20.30;6.65;;;;;;;4.81;100.00;101544.78;5042254;28;20048;-82
2023/12/20 04:07:09;;;;;;;27.27;7.60;;;;;;;4.82;100.00;101549.06;5038309;28;20020;-81
2023/12/20 04:09:34;;;;;;;30.10;7.40;;;;;;;4.85;100.00;101535.91;5035626;28;20087;-82
2023/12/20 04:12:00;;;;;;;27.02;7.22;;;;;;;4.87;100.00;101536.69;5041130;28;20078;-82
2023/12/20 04:14:25;;;;;;;31.27;7.80;;;;;;;4.91;100.00;101542.66;5041329;28;20025;-82
2023/12/20 04:16:50;;;;;;;23.88;7.50;;;;;;;4.94;100.00;101537.31;5044820;28;20025;-83
2023/12/20 04:19:16;;;;;;;29.42;7.45;;;;;;;4.97;100.00;101542.41;5039429;28;20059;-83
2023/12/20 04:21:41;;;;;;;32.72;7.07;;;;;;;5.00;100.00;101539.66;5050093;28;20032;-83
2023/12/20 04:24:06;;;;;;;29.33;7.47;;;;;;;5.01;100.00;101539.59;5048742;28;20021;-83
2023/12/20 04:26:32;;;;;;;27.77;7.22;;;;;;;5.03;100.00;101534.31;5049708;28;20040;-83
2023/12/20 04:29:00;;;;;;;29.98;7.00;;;;;;;5.07;100.00;101540.25;5048918;28;20063;-82
2023/12/20 04:31:26;;;;;;;30.13;7.55;;;;;;;5.09;100.00;101539.28;5034452;28;20085;-82
2023/12/20 04:33:51;;;;;;;30.67;7.13;;;;;;;5.11;100.00;101534.00;5031774;28;20045;-82
2023/12/20 04:36:16;;;;;;;26.67;7.40;;;;;;;5.12;100.00;101544.38;5049108;28;20147;-82
2023/12/20 04:38:42;;;;;;;26.55;6.55;;;;;;;5.16;100.00;101542.50;5048340;28;20056;-82
2023/12/20 04:41:07;;;;;;;28.25;6.60;;;;;;;5.19;100.00;101537.16;5048363;28;20020;-83
2023/12/20 04:43:33;;;;;;;29.65;6.40;;;;;;;5.21;100.00;101535.38;5048818;28;20033;-83
2023/12/20 04:45:58;;;;;;;27.50;6.13;;;;;;;5.23;100.00;101543.97;5047909;28;20459;-83
2023/12/20 04:48:23;;;;;;;25.35;6.20;;;;;;;5.24;100.00;101535.25;5049051;28;20036;-83
2023/12/20 04:50:49;;;;;;;28.63;6.68;;;;;;;5.26;100.00;101538.63;5042463;28;20028;-83
2023/12/20 04:53:14;;;;;;;26.05;6.05;;;;;;;5.27;100.00;101542.94;5047702;28;20480;-82
2023/12/20 04:55:39;;;;;;;25.02;6.20;;;;;;;5.28;100.00;101547.25;5035139;28;20028;-83
2023/12/20 04:58:05;;;;;;;24.27;5.95;;;;;;;5.26;100.00;101551.69;5048032;28;20032;-83
2023/12/20 05:00:30;;;;;;;27.70;5.78;;;;;;;5.28;100.00;101557.69;5048315;28;20108;-82
2023/12/20 05:02:58;;;;;;;30.52;6.90;;;;;;;5.28;100.00;101542.03;5032393;28;20056;-82
2023/12/20 05:05:24;;;;;;;25.90;5.95;;;;;;;5.27;100.00;101525.53;5046563;28;20061;-82
2023/12/20 05:07:49;;;;;;;28.58;6.25;;;;;;;5.26;100.00;101518.59;5046945;28;20065;-82
2023/12/20 05:10:14;;;;;;;29.13;6.22;;;;;;;5.27;100.00;101529.88;5035786;28;20091;-82
2023/12/20 05:12:40;;;;;;;24.90;6.38;;;;;;;5.27;100.00;101532.50;5038435;28;20029;-82
2023/12/20 05:15:06;;;;;;;27.02;6.68;;;;;;;5.26;100.00;101525.59;5047027;28;20033;-83
2023/12/20 05:17:31;;;;;;;25.35;5.93;;;;;;;5.27;100.00;101519.44;5048049;28;20032;-83
2023/12/20 05:20:00;;;;;;;31.38;6.57;;;;;;;5.27;100.00;101514.25;5044349;28;20021;-82
2023/12/20 05:22:27;;;;;;;29.00;6.80;;;;;;;5.27;100.00;101516.84;5042831;28;20112;-83
2023/12/20 05:24:52;;;;;;;28.75;5.95;;;;;;;5.27;100.00;101515.09;5064176;28;20063;-83
2023/12/20 05:27:17;;;;;;;21.23;5.60;;;;;;;5.27;100.00;101525.53;5047015;28;20029;-83
2023/12/20 05:29:43;;;;;;;21.40;6.22;;;;;;;5.27;100.00;101524.69;5048676;28;20078;-82
2023/12/20 05:32:08;;;;;;;26.23;6.03;;;;;;;5.26;100.00;101523.81;5047526;28;20021;-82
2023/12/20 05:34:33;;;;;;;27.60;6.18;;;;;;;5.28;100.00;101526.38;5044499;28;20028;-82
2023/12/20 05:36:59;;;;;;;25.13;6.30;;;;;;;5.27;100.00;101529.88;5032536;28;20112;-82
2023/12/20 05:39:24;;;;;;;30.70;6.65;;;;;;;5.27;100.00;101528.13;5041632;28;20095;-82
2023/12/20 05:41:49;;;;;;;25.23;5.78;;;;;;;5.27;100.00;101535.09;5042880;28;20428;-82
2023/12/20 05:44:17;;;;;;;29.75;6.53;;;;;;;5.23;100.00;101530.94;5040332;28;20501;-83
2023/12/20 05:46:43;;;;;;;23.98;6.20;;;;;;;5.20;100.00;101528.41;5034276;28;20056;-83
2023/12/20 05:49:09;;;;;;;22.65;5.70;;;;;;;5.16;100.00;101526.84;5028459;28;20060;-82
2023/12/20 05:51:34;;;;;;;27.45;6.38;;;;;;;5.12;100.00;101535.72;5045907;28;20020;-82
2023/12/20 05:53:59;;;;;;;23.67;5.95;;;;;;;5.07;100.00;101535.91;5040029;28;20025;-82
2023/12/20 05:56:25;;;;;;;29.48;7.15;;;;;;;5.02;100.00;101530.88;5028236;28;20021;-83
2023/12/20 05:58:50;;;;;;;26.60;6.68;;;;;;;4.97;100.00;101539.78;5032180;28;20029;-82
2023/12/20 06:01:18;;;;;;;21.35;5.57;;;;;;;4.93;100.00;101546.88;5040664;28;20033;-83
2023/12/20 06:03:45;;;;;;;27.15;5.80;;;;;;;4.90;100.00;101546.16;5028548;28;23159;-83
2023/12/20 06:06:13;;;;;;;26.65;5.85;;;;;;;4.86;100.00;101553.25;5048388;28;20029;-83
2023/12/20 06:08:39;;;;;;;28.10;6.60;;;;;;;4.84;100.00;101560.28;5043428;28;20040;-82
2023/12/20 06:11:05;;;;;;;26.35;6.53;;;;;;;4.81;100.00;101556.94;5036980;28;20028;-83
2023/12/20 06:13:30;;;;;;;18.85;5.90;;;;;;;4.79;100.00;101562.19;5049260;28;20542;-83
2023/12/20 06:15:56;;;;;;;27.55;6.82;;;;;;;4.76;100.00;101554.50;5045425;28;20029;-83
2023/12/20 06:18:22;;;;;;;25.83;6.10;;;;;;;4.74;100.00;101553.72;5031821;28;20075;-82
2023/12/20 06:20:47;;;;;;;23.00;5.90;;;;;;;4.72;100.00;101539.88;5035753;28;20065;-82
2023/12/20 06:23:12;;;;;;;24.30;6.03;;;;;;;4.70;100.00;101544.31;5042874;28;20029;-83
2023/12/20 06:25:38;;;;;;;28.98;7.15;;;;;;;4.67;100.00;101547.03;5050489;28;20040;-83
2023/12/20 06:28:03;;;;;;;27.17;6.95;;;;;;;4.64;100.00;101555.81;5051104;28;20029;-83
2023/12/20 06:30:29;;;;;;;28.83;7.65;;;;;;;4.61;100.00;101550.72;5049894;28;20032;-83
2023/12/20 06:33:00;;;;;;;26.88;7.47;;;;;;;4.59;100.00;101554.28;5050467;28;20173;-83
2023/12/20 06:35:26;;;;;;;28.58;7.78;;;;;;;4.60;100.00;101545.56;5051590;28;20036;-83
2023/12/20 06:37:52;;;;;;;24.55;7.53;;;;;;;4.56;100.00;101542.25;5049011;28;20059;-83
2023/12/20 06:40:17;;;;;;;29.23;7.70;;;;;;;4.53;100.00;101546.72;5049413;28;20419;-82
2023/12/20 06:42:43;;;;;;;30.05;7.40;;;;;;;4.52;100.00;101545.03;5051361;28;20484;-83
2023/12/20 06:45:09;;;;;;;26.83;7.60;;;;;;;4.51;100.00;101548.53;5050905;28;20024;-83
2023/12/20 06:47:35;;;;;;;29.45;8.30;;;;;;;4.52;100.00;101539.81;5051479;28;20028;-82
2023/12/20 06:50:00;;;;;;;31.20;8.05;;;;;;;4.52;100.00;101545.03;5052442;28;20020;-82
2023/12/20 06:52:26;;;;;;;28.13;7.93;;;;;;;4.53;100.00;101544.09;5050426;28;20108;-82
2023/12/20 06:54:52;;;;;;;31.60;7.85;;;;;;;4.53;100.00;101542.34;5052474;28;20500;-83
2023/12/20 06:57:17;;;;;;;25.88;8.05;;;;;;;4.55;100.00;101531.88;5051763;28;20032;-84
2023/12/20 06:59:42;;;;;;;27.80;8.10;;;;;;;4.54;100.00;101538.00;5051542;28;20029;-83
2023/12/20 07:02:08;;;;;;;27.30;7.63;;;;;;;4.54;100.00;101540.59;5041006;28;20022;-82
2023/12/20 07:04:34;;;;;;;28.52;7.68;;;;;;;4.55;100.00;101543.16;5046647;28;20456;-82
2023/12/20 07:07:00;;;;;;;27.38;7.93;;;;;;;4.55;100.00;101547.50;5043365;28;20061;-83
2023/12/20 07:09:26;;;;;;;32.58;8.02;;;;;;;4.55;100.00;101535.31;5046601;28;20064;-82
2023/12/20 07:11:52;;;;;;;28.20;7.43;;;;;;;4.58;100.00;101544.78;5050094;28;20063;-82
2023/12/20 07:14:18;;;;;;;28.13;7.70;;;;;;;4.54;100.00;101533.63;5051050;28;20857;-82
2023/12/20 07:16:43;;;;;;;30.83;8.23;;;;;;;4.54;100.00;101538.00;5051610;28;20175;-82
2023/12/20 07:19:08;;;;;;;29.45;7.82;;;;;;;4.56;100.00;101539.63;5049610;28;20083;-81
2023/12/20 07:21:34;;;;;;;30.25;7.57;;;;;;;4.56;100.00;101536.19;5049598;28;20108;-82
2023/12/20 07:23:59;;;;;;;30.63;8.63;;;;;;;4.56;100.00;101538.78;5050129;28;20029;-83
2023/12/20 07:26:25;;;;;;;32.35;10.30;;;;;;;4.58;100.00;101537.81;5049803;28;20110;-83
2023/12/20 07:28:50;;;;;;;29.70;7.40;;;;;;;4.61;100.00;101544.66;5045714;28;20134;-83
2023/12/20 07:31:16;;;;;;;23.45;6.90;;;;;;;4.63;100.00;101548.06;5046860;28;20666;-83
2023/12/20 07:33:41;;;;;;;29.73;7.18;;;;;;;4.65;100.00;101547.09;5048896;28;20044;-84
2023/12/20 07:36:07;;;;;;;30.60;6.88;;;;;;;4.67;100.00;101534.84;5047617;28;20067;-83
2023/12/20 07:38:33;;;;;;;26.05;7.03;;;;;;;4.69;100.00;101540.00;5049566;28;20029;-83
2023/12/20 07:40:58;;;;;;;28.27;7.30;;;;;;;4.71;100.00;101546.84;5048840;28;20131;-83
2023/12/20 07:43:24;;;;;;;30.77;7.63;;;;;;;4.75;100.00;101544.97;5048734;28;20067;-83
2023/12/20 07:45:49;;;;;;;26.40;7.30;;;;;;;4.77;100.00;101543.16;5047634;28;20400;-83
2023/12/20 07:48:14;;;;;;;24.63;6.47;;;;;;;4.80;100.00;101532.59;5043278;28;20389;-83
2023/12/20 07:50:40;;;;;;;25.90;6.65;;;;;;;4.83;100.00;101529.91;5047105;28;20592;-83
2023/12/20 07:53:05;;;;;;;30.27;7.50;;;;;;;4.84;100.00;101529.00;5048429;28;20377;-84
2023/12/20 07:55:31;;;;;;;23.63;6.13;;;;;;;4.87;100.00;101530.63;5045113;28;20040;-83
2023/12/20 07:58:00;;;;;;;27.45;6.72;;;;;;;4.90;100.00;101536.59;5043295;28;20347;-82
2023/12/20 08:00:26;;;;;;;30.63;6.53;;;;;;;4.92;100.00;101539.97;5039247;28;20083;-82
2023/12/20 08:02:51;;;;;;;31.85;6.72;;;;;;;4.95;100.00;101542.47;5030069;28;20477;-82
2023/12/20 08:05:16;;;;;;;27.52;7.05;;;;;;;4.96;100.00;101544.16;5030517;28;20033;-83
2023/12/20 08:07:42;;;;;;;26.50;6.55;;;;;;;4.98;100.00;101547.56;5035209;28;20053;-83
2023/12/20 08:10:08;;;;;;;32.67;7.10;;;;;;;4.99;100.00;101546.63;5048241;28;20029;-82
2023/12/20 08:12:34;;;;;;;24.90;6.28;;;;;;;5.01;100.00;101550.03;5049850;28;20056;-82
2023/12/20 08:14:59;;;;;;;28.10;6.82;;;;;;;5.04;100.00;101554.28;5043787;28;20028;-83
2023/12/20 08:17:24;;;;;;;35.08;7.45;;;;;;;5.05;100.00;101550.75;5030336;28;20112;-82
2023/12/20 08:19:50;;;;;;;34.13;7.43;;;;;;;5.07;100.00;101543.72;5040747;28;20033;-82
2023/12/20 08:22:16;;;;;;;27.20;7.40;;;;;;;5.09;100.00;101547.13;5047254;28;20029;-84
2023/12/20 08:24:41;;;;;;;28.38;7.32;;;;;;;5.13;100.00;101542.63;5034329;28;20025;-82
2023/12/20 08:27:06;;;;;;;26.88;6.50;;;;;;;5.15;100.00;101552.09;5032183;28;20025;-82
2023/12/20 08:29:32;;;;;;;23.38;6.20;;;;;;;5.16;100.00;101561.59;5028463;28;20029;-83
2023/12/20 08:32:00;;;;;;;33.53;7.45;;;;;;;5.20;100.00;101559.72;5029665;28;20025;-82
2023/12/20 08:34:25;;;;;;;28.92;7.38;;;;;;;5.25;100.00;101552.59;5037599;28;20024;-83
2023/12/20 08:36:53;;;;;;;26.10;6.93;;;;;;;5.29;100.00;101567.19;5031160;28;20380;-82
2023/12/20 08:39:19;;;;;;;25.83;6.70;;;;;;;5.33;100.00;101561.78;5037822;28;20044;-82
2023/12/20 08:41:44;;;;;;;29.88;7.75;;;;;;;5.38;100.00;101559.00;5044405;28;20391;-82
2023/12/20 08:44:09;;;;;;;25.95;6.55;;;;;;;5.40;100.00;101559.78;5040871;28;20449;-82
2023/12/20 08:46:35;;;;;;;25.67;7.18;;;;;;;5.44;100.00;101557.88;5041149;28;20556;-83
2023/12/20 08:49:01;;;;;;;22.25;6.07;;;;;;;5.47;100.00;101547.31;5049159;28;20044;-83
2023/12/20 08:51:27;;;;;;;24.30;5.88;;;;;;;5.50;100.00;101548.03;5048884;28;20025;-83
2023/12/20 08:53:53;;;;;;;31.08;6.68;;;;;;;5.52;100.00;101541.00;5032669;28;20026;-83
2023/12/20 08:56:18;;;;;;;29.00;6.60;;;;;;;5.55;100.00;101529.56;5039513;28;20029;-84
2023/12/20 08:58:45;;;;;;;30.13;6.25;;;;;;;5.55;100.00;101525.19;5044170;28;20543;-83
2023/12/20 09:01:11;;;;;;;29.52;6.50;;;;;;;5.56;100.00;101536.50;5043066;28;20063;-82
2023/12/20 09:03:36;;;;;;;23.65;5.85;;;;;;;5.56;100.00;101519.06;5032085;28;20037;-82
2023/12/20 09:06:02;;;;;;;26.20;6.43;;;;;;;5.57;100.00;101528.59;5027162;28;20013;-82
2023/12/20 09:08:30;;;;;;;26.75;5.90;;;;;;;5.57;100.00;101538.19;5033272;28;20032;-81
2023/12/20 09:10:55;;;;;;;28.20;6.07;;;;;;;5.58;100.00;101530.28;5048182;28;20017;-83
2023/12/20 09:13:22;;;;;;;27.48;6.53;;;;;;;5.60;100.00;101538.94;5047605;28;20031;-82
2023/12/20 09:15:47;;;;;;;26.42;6.20;;;;;;;5.60;100.00;101546.78;5047853;28;20424;-83
2023/12/20 09:18:12;;;;;;;24.92;6.57;;;;;;;5.60;100.00;101536.31;5044617;28;20033;-82
2023/12/20 09:20:38;;;;;;;20.42;6.18;;;;;;;5.60;100.00;101533.72;5044276;28;20024;-82
2023/12/20 09:23:03;;;;;;;24.95;5.95;;;;;;;5.62;100.00;101536.25;5048617;28;20017;-82
2023/12/20 09:25:29;;;;;;;25.33;5.68;;;;;;;5.63;100.00;101537.94;5045402;28;20070;-82
2023/12/20 09:28:01;;;;;;;26.55;6.30;;;;;;;5.64;100.00;101540.50;5029512;28;20104;-82
2023/12/20 09:30:27;;;;;;;25.33;5.90;;;;;;;5.64;100.00;101535.28;5038123;28;20462;-82
2023/12/20 09:32:52;;;;;;;27.73;6.25;;;;;;;5.66;100.00;101538.66;5027858;28;20124;-81
2023/12/20 09:35:18;;;;;;;26.48;6.38;;;;;;;5.68;100.00;101540.38;5036871;28;20263;-82
2023/12/20 09:37:44;;;;;;;23.70;6.18;;;;;;;5.70;100.00;101533.31;5040102;28;20025;-83
2023/12/20 09:40:12;;;;;;;24.83;5.82;;;;;;;5.71;100.00;101524.56;5045153;28;20029;-82
2023/12/20 09:42:43;;;;;;;28.98;6.18;;;;;;;5.73;100.00;101520.13;5042670;28;20040;-82
2023/12/20 09:45:09;;;;;;;27.45;5.88;;;;;;;5.75;100.00;101520.91;5044562;28;20043;-83
2023/12/20 09:47:35;;;;;;;24.00;5.30;;;;;;;5.77;100.00;101522.53;5047470;28;20441;-82
2023/12/20 09:50:02;;;;;;;26.60;5.43;;;;;;;5.79;100.00;101525.09;5047568;28;20048;-82
2023/12/20 09:52:28;;;;;;;25.27;5.70;;;;;;;5.81;100.00;101529.31;5049376;28;20025;-82
2023/12/20 09:54:55;;;;;;;24.27;5.60;;;;;;;5.84;100.00;101536.19;5049081;28;20025;-82
2023/12/20 09:57:21;;;;;;;25.10;5.55;;;;;;;5.87;100.00;101534.28;5038522;28;20033;-82
2023/12/20 09:59:46;;;;;;;23.63;5.45;;;;;;;5.88;100.00;101529.91;5028157;28;20052;-81
2023/12/20 10:02:14;;;;;;;20.27;5.82;;;;;;;5.91;100.00;101527.19;5040810;28;20025;-82
2023/12/20 10:04:46;;;;;;;26.73;6.05;;;;;;;5.93;100.00;101535.81;5042490;28;20017;-82
2023/12/20 10:07:11;;;;;;;25.42;5.22;;;;;;;5.95;100.00;101523.53;5027828;28;20198;-83
2023/12/20 10:09:37;;;;;;;21.23;5.43;;;;;;;5.98;100.00;101528.59;5027863;28;20060;-82
2023/12/20 10:12:05;;;;;;;18.20;5.20;;;;;;;6.02;100.00;101540.66;5026918;28;20163;-82
2023/12/20 10:14:32;;;;;;;21.52;5.45;;;;;;;6.03;100.00;101531.91;5027056;28;20025;-82
2023/12/20 10:17:04;;;;;;;23.50;5.82;;;;;;;6.05;100.00;101530.06;5028979;28;20101;-81
2023/12/20 10:19:29;;;;;;;20.15;5.53;;;;;;;6.10;100.00;101527.25;5045067;28;20025;-82
2023/12/20 10:21:59;;;;;;;19.05;5.32;;;;;;;6.15;100.00;101523.50;5030010;28;20041;-82
2023/12/20 10:24:28;;;;;;;19.65;5.28;;;;;;;6.17;100.00;101518.22;5041694;28;20059;-82
2023/12/20 10:27:04;;;;;;;18.50;5.13;;;;;;;6.21;100.00;101536.28;5047517;28;20037;-83
2023/12/20 10:29:32;;;;;;;20.00;5.15;;;;;;;6.23;100.00;101531.84;5047294;28;20055;-83
2023/12/20 10:32:00;;;;;;;21.90;5.65;;;;;;;6.25;100.00;101519.56;5047341;28;20058;-83
2023/12/20 10:34:25;;;;;;;21.48;4.97;;;;;;;6.27;100.00;101530.78;5030164;28;20013;-83
2023/12/20 10:36:51;;;;;;;20.60;5.18;;;;;;;6.29;100.00;101522.88;5047423;28;20397;-83
2023/12/20 10:39:20;;;;;;;25.58;5.40;;;;;;;6.29;100.00;101518.50;5046613;28;20351;-82
2023/12/20 10:41:46;;;;;;;22.08;5.38;;;;;;;6.32;100.00;101511.44;5042140;28;20109;-83
2023/12/20 10:44:18;;;;;;;26.13;5.82;;;;;;;6.32;100.00;101521.88;5038846;28;20044;-83
2023/12/20 10:46:51;;;;;;;;;;;;;;;6.41;100.00;101514.50;5035070;28;20485;-83
2023/12/20 10:49:17;;;;;;;18.98;5.30;;;;;;;6.37;100.00;101512.06;5039365;28;19913;-82
2023/12/20 10:51:45;;;;;;;18.60;4.85;;;;;;;6.37;100.00;101510.31;5040194;28;20029;-82
2023/12/20 10:54:11;;;;;;;28.17;5.85;;;;;;;6.41;100.00;101505.81;5048624;28;20021;-83
2023/12/20 10:56:38;;;;;;;22.20;5.35;;;;;;;6.41;100.00;101501.44;5041374;28;20029;-83
2023/12/20 10:59:05;;;;;;;27.90;5.75;;;;;;;6.44;100.00;101505.66;5047881;28;20018;-83
2023/12/20 11:01:31;;;;;;;20.65;4.72;;;;;;;6.43;100.00;101496.13;5044540;28;20071;-82
2023/12/20 11:03:57;;;;;;;25.63;5.05;;;;;;;6.44;100.00;101485.59;5047195;28;20075;-82
2023/12/20 11:06:49;;;;;;;20.23;4.93;;;;;;;6.48;100.00;101483.69;5043136;28;20112;-82
2023/12/20 11:09:35;;;;;;;24.35;5.25;;;;;;;6.47;100.00;101484.59;5051596;28;20041;-82
2023/12/20 11:12:10;;;;;;;23.83;5.40;;;;;;;6.47;100.00;101485.47;5050609;28;20064;-82